Impacts TAF Board
For situational awareness. Not to be used for flight planning purposes.
IDs:

KHQM - Hoquiam/Bowerman Arp, WA, US

Issued at 2334 UTC 18 Oct 2021
Updated at 0305 UTC 19 Oct 2021
Potential Impact None Slight Moderate High
Time0253Z 19/04Z 19/05Z 19/06Z 19/07Z 19/08Z 19/09Z 19/10Z 19/11Z 19/12Z 19/13Z 19/14Z 19/15Z 19/16Z>>
Type OBS PRVL PRVL PRVL PRVL PRVL PRVL PRVL PRVL PRVL PRVL PRVL PRVL PRVL
VIS 10 >6 >6 >6 >6 >6 >6 >6 >6 >6 >6 >6 >6 >6
CIG -- -- -- -- -- -- -- -- -- -- -- -- -- --
Cover CLR FEW SCT SCT SCT SCT SCT SCT SCT SCT SCT SCT SCT SCT
FltCat VFR VFR VFR VFR VFR VFR VFR VFR VFR VFR VFR VFR VFR VFR
WX -- -- -- -- -- -- -- -- -- -- -- -- -- --
WDir VRB 230 70 70 70 70 70 70 70 70 70 70 70 70
WSpd 0 5 5 5 5 5 5 5 5 5 5 5 12 12
WGst -- -- -- -- -- -- -- -- -- -- -- -- -- --
Raw TAF
KHQM 182334Z 1900/1924 23005KT P6SM FEW250
  FM190500 07005KT P6SM SCT250
  FM191500 07012KT P6SM SCT250
  FM191800 07007KT P6SM SCT250


Raw METAR
KHQM 190253Z AUTO 00000KT 10SM CLR 09/06 A2999 RMK AO2 SLP158 T00940056 56004
KHQM 190153Z AUTO 00000KT 10SM CLR 11/05 A2999 RMK AO2 SLP159 T01060050
KHQM 190053Z AUTO 27004KT 10SM CLR 12/05 A2999 RMK AO2 SLP159 T01170050

METAR Board
Radar Display
Forecast Discussion
For situational awareness. Not to be used for flight planning purposes.